sensor_id;sensor_type;location;lat;lon;timestamp;temperature;humidity
3069;DHT22;1545;51.728;8.796;2022-09-13T00:01:13;17.40;79.10
3069;DHT22;1545;51.728;8.796;2022-09-13T00:03:38;17.50;79.10
3069;DHT22;1545;51.728;8.796;2022-09-13T00:06:12;17.40;79.00
3069;DHT22;1545;51.728;8.796;2022-09-13T00:08:39;17.40;79.10
3069;DHT22;1545;51.728;8.796;2022-09-13T00:11:05;17.40;79.10
3069;DHT22;1545;51.728;8.796;2022-09-13T00:13:31;17.40;79.00
3069;DHT22;1545;51.728;8.796;2022-09-13T00:15:57;17.40;79.00
3069;DHT22;1545;51.728;8.796;2022-09-13T00:18:25;17.40;79.00
3069;DHT22;1545;51.728;8.796;2022-09-13T00:20:51;17.30;79.30
3069;DHT22;1545;51.728;8.796;2022-09-13T00:23:16;17.30;79.40
3069;DHT22;1545;51.728;8.796;2022-09-13T00:25:42;17.20;79.40
3069;DHT22;1545;51.728;8.796;2022-09-13T00:28:07;17.10;79.50
3069;DHT22;1545;51.728;8.796;2022-09-13T00:30:33;17.00;79.50
3069;DHT22;1545;51.728;8.796;2022-09-13T00:32:59;17.00;79.70
3069;DHT22;1545;51.728;8.796;2022-09-13T00:35:28;17.00;79.70
3069;DHT22;1545;51.728;8.796;2022-09-13T00:37:54;16.90;79.70
3069;DHT22;1545;51.728;8.796;2022-09-13T00:40:20;16.90;79.80
3069;DHT22;1545;51.728;8.796;2022-09-13T00:42:46;16.90;79.80
3069;DHT22;1545;51.728;8.796;2022-09-13T00:47:56;17.10;79.60
3069;DHT22;1545;51.728;8.796;2022-09-13T00:50:42;17.20;79.50
3069;DHT22;1545;51.728;8.796;2022-09-13T00:53:22;17.40;79.40
3069;DHT22;1545;51.728;8.796;2022-09-13T00:55:54;17.50;79.10
3069;DHT22;1545;51.728;8.796;2022-09-13T01:00:52;17.70;78.80
3069;DHT22;1545;51.728;8.796;2022-09-13T01:03:21;17.70;78.80
3069;DHT22;1545;51.728;8.796;2022-09-13T01:05:53;17.70;78.80
3069;DHT22;1545;51.728;8.796;2022-09-13T01:08:20;17.70;78.80
3069;DHT22;1545;51.728;8.796;2022-09-13T01:10:48;17.60;78.90
3069;DHT22;1545;51.728;8.796;2022-09-13T01:13:19;17.60;79.00
3069;DHT22;1545;51.728;8.796;2022-09-13T01:15:45;17.60;79.10
3069;DHT22;1545;51.728;8.796;2022-09-13T01:18:11;17.50;79.20
3069;DHT22;1545;51.728;8.796;2022-09-13T01:20:56;17.50;79.20
3069;DHT22;1545;51.728;8.796;2022-09-13T01:26:50;17.50;79.30
3069;DHT22;1545;51.728;8.796;2022-09-13T01:29:36;17.50;79.30
3069;DHT22;1545;51.728;8.796;2022-09-13T01:41:02;17.50;79.40
3069;DHT22;1545;51.728;8.796;2022-09-13T01:43:38;17.50;79.30
3069;DHT22;1545;51.728;8.796;2022-09-13T01:51:25;17.70;79.20
3069;DHT22;1545;51.728;8.796;2022-09-13T01:53:57;17.70;79.00
3069;DHT22;1545;51.728;8.796;2022-09-13T01:56:34;17.80;78.90
3069;DHT22;1545;51.728;8.796;2022-09-13T01:59:15;17.90;78.90
3069;DHT22;1545;51.728;8.796;2022-09-13T02:02:04;18.10;78.60
3069;DHT22;1545;51.728;8.796;2022-09-13T02:04:36;18.10;78.60
3069;DHT22;1545;51.728;8.796;2022-09-13T02:07:09;18.30;78.10
3069;DHT22;1545;51.728;8.796;2022-09-13T02:09:44;18.30;78.00
3069;DHT22;1545;51.728;8.796;2022-09-13T02:12:17;18.40;77.90
3069;DHT22;1545;51.728;8.796;2022-09-13T02:14:50;18.50;77.80
3069;DHT22;1545;51.728;8.796;2022-09-13T02:17:22;18.50;77.60
3069;DHT22;1545;51.728;8.796;2022-09-13T02:22:22;18.50;77.60
3069;DHT22;1545;51.728;8.796;2022-09-13T02:24:54;18.60;77.70
3069;DHT22;1545;51.728;8.796;2022-09-13T02:27:24;18.60;77.70
3069;DHT22;1545;51.728;8.796;2022-09-13T02:29:54;18.70;77.50
3069;DHT22;1545;51.728;8.796;2022-09-13T02:32:23;18.70;77.30
3069;DHT22;1545;51.728;8.796;2022-09-13T02:34:53;18.70;77.30
3069;DHT22;1545;51.728;8.796;2022-09-13T02:37:23;18.80;77.40
3069;DHT22;1545;51.728;8.796;2022-09-13T02:39:54;18.80;77.20
3069;DHT22;1545;51.728;8.796;2022-09-13T02:42:42;18.80;77.30
3069;DHT22;1545;51.728;8.796;2022-09-13T02:45:11;18.80;77.10
3069;DHT22;1545;51.728;8.796;2022-09-13T02:47:53;18.80;77.10
3069;DHT22;1545;51.728;8.796;2022-09-13T02:59:16;18.90;77.00
3069;DHT22;1545;51.728;8.796;2022-09-13T03:01:59;18.90;77.00
3069;DHT22;1545;51.728;8.796;2022-09-13T03:04:27;18.90;77.00
3069;DHT22;1545;51.728;8.796;2022-09-13T03:06:52;18.80;77.10
3069;DHT22;1545;51.728;8.796;2022-09-13T03:09:18;18.80;77.10
3069;DHT22;1545;51.728;8.796;2022-09-13T03:14:39;18.90;76.90
3069;DHT22;1545;51.728;8.796;2022-09-13T03:17:14;18.90;76.80
3069;DHT22;1545;51.728;8.796;2022-09-13T03:22:33;18.90;77.00
3069;DHT22;1545;51.728;8.796;2022-09-13T03:25:30;18.90;76.90
3069;DHT22;1545;51.728;8.796;2022-09-13T03:28:23;18.90;76.90
3069;DHT22;1545;51.728;8.796;2022-09-13T03:31:11;18.80;77.30
3069;DHT22;1545;51.728;8.796;2022-09-13T03:34:27;18.80;77.80
3069;DHT22;1545;51.728;8.796;2022-09-13T03:36:44;18.80;78.30
3069;DHT22;1545;51.728;8.796;2022-09-13T03:42:18;18.60;80.30
3069;DHT22;1545;51.728;8.796;2022-09-13T03:44:48;18.40;80.80
3069;DHT22;1545;51.728;8.796;2022-09-13T03:47:15;18.10;82.00
3069;DHT22;1545;51.728;8.796;2022-09-13T03:49:41;17.80;83.10
3069;DHT22;1545;51.728;8.796;2022-09-13T03:52:07;17.70;83.00
3069;DHT22;1545;51.728;8.796;2022-09-13T03:54:36;17.60;83.10
3069;DHT22;1545;51.728;8.796;2022-09-13T03:57:13;17.50;84.50
3069;DHT22;1545;51.728;8.796;2022-09-13T03:59:59;17.50;84.20
3069;DHT22;1545;51.728;8.796;2022-09-13T04:02:25;17.50;84.60
3069;DHT22;1545;51.728;8.796;2022-09-13T04:04:51;17.40;83.40
3069;DHT22;1545;51.728;8.796;2022-09-13T04:07:22;17.40;83.40
3069;DHT22;1545;51.728;8.796;2022-09-13T04:09:48;17.40;84.50
3069;DHT22;1545;51.728;8.796;2022-09-13T04:12:15;17.40;84.10
3069;DHT22;1545;51.728;8.796;2022-09-13T04:14:42;17.40;84.00
3069;DHT22;1545;51.728;8.796;2022-09-13T04:17:11;17.40;84.30
3069;DHT22;1545;51.728;8.796;2022-09-13T04:19:36;17.40;84.30
3069;DHT22;1545;51.728;8.796;2022-09-13T04:22:02;17.40;85.00
3069;DHT22;1545;51.728;8.796;2022-09-13T04:24:29;17.40;85.30
3069;DHT22;1545;51.728;8.796;2022-09-13T04:26:56;17.50;84.80
3069;DHT22;1545;51.728;8.796;2022-09-13T04:29:23;17.40;85.20
3069;DHT22;1545;51.728;8.796;2022-09-13T04:31:50;17.40;85.20
3069;DHT22;1545;51.728;8.796;2022-09-13T04:34:17;17.50;85.10
3069;DHT22;1545;51.728;8.796;2022-09-13T04:36:43;17.60;84.80
3069;DHT22;1545;51.728;8.796;2022-09-13T04:39:09;17.50;84.70
3069;DHT22;1545;51.728;8.796;2022-09-13T04:41:35;17.50;84.40
3069;DHT22;1545;51.728;8.796;2022-09-13T04:44:01;17.50;84.00
3069;DHT22;1545;51.728;8.796;2022-09-13T04:46:27;17.60;83.50
3069;DHT22;1545;51.728;8.796;2022-09-13T04:48:53;17.70;83.20
3069;DHT22;1545;51.728;8.796;2022-09-13T04:51:19;17.80;82.90
3069;DHT22;1545;51.728;8.796;2022-09-13T04:53:50;17.80;82.40
3069;DHT22;1545;51.728;8.796;2022-09-13T04:56:17;17.90;81.50
3069;DHT22;1545;51.728;8.796;2022-09-13T04:58:44;18.00;81.40
3069;DHT22;1545;51.728;8.796;2022-09-13T05:01:09;18.00;81.70
3069;DHT22;1545;51.728;8.796;2022-09-13T05:03:36;18.00;81.80
3069;DHT22;1545;51.728;8.796;2022-09-13T05:06:06;18.00;81.90
3069;DHT22;1545;51.728;8.796;2022-09-13T05:08:33;18.00;81.50
3069;DHT22;1545;51.728;8.796;2022-09-13T05:10:59;18.00;81.10
3069;DHT22;1545;51.728;8.796;2022-09-13T05:13:25;18.00;80.70
3069;DHT22;1545;51.728;8.796;2022-09-13T05:15:55;18.10;80.60
3069;DHT22;1545;51.728;8.796;2022-09-13T05:18:21;18.10;80.40
3069;DHT22;1545;51.728;8.796;2022-09-13T05:20:47;18.20;80.00
3069;DHT22;1545;51.728;8.796;2022-09-13T05:23:12;18.20;80.20
3069;DHT22;1545;51.728;8.796;2022-09-13T05:25:38;18.20;79.90
3069;DHT22;1545;51.728;8.796;2022-09-13T05:28:03;18.30;79.80
3069;DHT22;1545;51.728;8.796;2022-09-13T05:30:29;18.30;79.30
3069;DHT22;1545;51.728;8.796;2022-09-13T05:32:54;18.30;79.50
3069;DHT22;1545;51.728;8.796;2022-09-13T05:35:21;18.40;79.10
3069;DHT22;1545;51.728;8.796;2022-09-13T05:37:48;18.40;79.10
3069;DHT22;1545;51.728;8.796;2022-09-13T05:40:13;18.40;79.00
3069;DHT22;1545;51.728;8.796;2022-09-13T05:42:39;18.50;78.90
3069;DHT22;1545;51.728;8.796;2022-09-13T05:45:05;18.50;79.00
3069;DHT22;1545;51.728;8.796;2022-09-13T05:47:31;18.50;78.90
3069;DHT22;1545;51.728;8.796;2022-09-13T05:49:56;18.60;78.80
3069;DHT22;1545;51.728;8.796;2022-09-13T05:52:22;18.70;78.80
3069;DHT22;1545;51.728;8.796;2022-09-13T05:54:47;18.80;78.70
3069;DHT22;1545;51.728;8.796;2022-09-13T05:57:12;18.90;78.40
3069;DHT22;1545;51.728;8.796;2022-09-13T05:59:38;19.00;78.40
3069;DHT22;1545;51.728;8.796;2022-09-13T06:02:05;19.00;78.40
3069;DHT22;1545;51.728;8.796;2022-09-13T06:04:30;19.10;78.10
3069;DHT22;1545;51.728;8.796;2022-09-13T06:06:56;19.10;78.00
3069;DHT22;1545;51.728;8.796;2022-09-13T06:09:21;19.20;78.00
3069;DHT22;1545;51.728;8.796;2022-09-13T06:11:47;19.30;77.90
3069;DHT22;1545;51.728;8.796;2022-09-13T06:14:12;19.30;77.90
3069;DHT22;1545;51.728;8.796;2022-09-13T06:16:38;19.40;77.90
3069;DHT22;1545;51.728;8.796;2022-09-13T06:19:03;19.50;77.60
3069;DHT22;1545;51.728;8.796;2022-09-13T06:21:29;19.50;80.80
3069;DHT22;1545;51.728;8.796;2022-09-13T06:23:54;19.40;81.30
3069;DHT22;1545;51.728;8.796;2022-09-13T06:26:25;19.20;81.70
3069;DHT22;1545;51.728;8.796;2022-09-13T06:28:53;19.10;81.80
3069;DHT22;1545;51.728;8.796;2022-09-13T06:31:21;19.20;82.90
3069;DHT22;1545;51.728;8.796;2022-09-13T06:33:47;19.30;83.20
3069;DHT22;1545;51.728;8.796;2022-09-13T06:36:17;19.30;83.00
3069;DHT22;1545;51.728;8.796;2022-09-13T06:38:44;19.40;82.30
3069;DHT22;1545;51.728;8.796;2022-09-13T06:41:12;19.60;82.30
3069;DHT22;1545;51.728;8.796;2022-09-13T06:43:39;19.70;82.10
3069;DHT22;1545;51.728;8.796;2022-09-13T06:46:13;19.80;82.40
3069;DHT22;1545;51.728;8.796;2022-09-13T06:48:40;19.90;82.20
3069;DHT22;1545;51.728;8.796;2022-09-13T06:51:15;20.00;81.70
3069;DHT22;1545;51.728;8.796;2022-09-13T06:53:41;20.10;81.40
3069;DHT22;1545;51.728;8.796;2022-09-13T06:56:18;20.30;81.20
3069;DHT22;1545;51.728;8.796;2022-09-13T06:58:47;20.50;80.10
3069;DHT22;1545;51.728;8.796;2022-09-13T07:01:31;20.50;79.90
3069;DHT22;1545;51.728;8.796;2022-09-13T07:04:11;20.80;78.50
3069;DHT22;1545;51.728;8.796;2022-09-13T07:06:42;21.00;77.70
3069;DHT22;1545;51.728;8.796;2022-09-13T07:09:10;21.30;77.30
3069;DHT22;1545;51.728;8.796;2022-09-13T07:11:39;21.50;76.90
3069;DHT22;1545;51.728;8.796;2022-09-13T07:14:05;21.70;75.80
3069;DHT22;1545;51.728;8.796;2022-09-13T07:16:32;21.80;75.30
3069;DHT22;1545;51.728;8.796;2022-09-13T07:19:00;21.90;75.10
3069;DHT22;1545;51.728;8.796;2022-09-13T07:21:27;22.00;73.80
3069;DHT22;1545;51.728;8.796;2022-09-13T07:23:54;22.00;73.50
3069;DHT22;1545;51.728;8.796;2022-09-13T07:26:19;22.10;73.50
3069;DHT22;1545;51.728;8.796;2022-09-13T07:28:47;22.10;72.40
3069;DHT22;1545;51.728;8.796;2022-09-13T07:31:18;22.20;72.10
3069;DHT22;1545;51.728;8.796;2022-09-13T07:33:52;22.30;72.00
3069;DHT22;1545;51.728;8.796;2022-09-13T07:36:18;22.30;71.70
3069;DHT22;1545;51.728;8.796;2022-09-13T07:38:43;22.20;72.60
3069;DHT22;1545;51.728;8.796;2022-09-13T07:41:12;22.40;72.50
3069;DHT22;1545;51.728;8.796;2022-09-13T07:43:38;22.50;71.70
3069;DHT22;1545;51.728;8.796;2022-09-13T07:46:05;22.60;72.00
3069;DHT22;1545;51.728;8.796;2022-09-13T07:48:33;22.70;71.70
3069;DHT22;1545;51.728;8.796;2022-09-13T07:53:26;22.90;70.70
3069;DHT22;1545;51.728;8.796;2022-09-13T07:55:53;22.90;70.80
3069;DHT22;1545;51.728;8.796;2022-09-13T07:58:18;23.00;70.70
3069;DHT22;1545;51.728;8.796;2022-09-13T08:00:44;23.00;70.50
3069;DHT22;1545;51.728;8.796;2022-09-13T08:03:10;23.00;70.30
3069;DHT22;1545;51.728;8.796;2022-09-13T08:05:39;23.00;71.00
3069;DHT22;1545;51.728;8.796;2022-09-13T08:08:05;23.10;71.10
3069;DHT22;1545;51.728;8.796;2022-09-13T08:10:32;23.10;70.40
3069;DHT22;1545;51.728;8.796;2022-09-13T08:12:58;22.90;70.60
3069;DHT22;1545;51.728;8.796;2022-09-13T08:15:23;22.90;70.50
3069;DHT22;1545;51.728;8.796;2022-09-13T08:17:49;22.90;71.00
3069;DHT22;1545;51.728;8.796;2022-09-13T08:20:14;23.10;71.50
3069;DHT22;1545;51.728;8.796;2022-09-13T08:22:40;23.40;69.90
3069;DHT22;1545;51.728;8.796;2022-09-13T08:25:05;23.50;69.60
3069;DHT22;1545;51.728;8.796;2022-09-13T08:27:31;23.40;69.30
3069;DHT22;1545;51.728;8.796;2022-09-13T08:29:56;23.30;69.90
3069;DHT22;1545;51.728;8.796;2022-09-13T08:32:22;23.30;69.50
3069;DHT22;1545;51.728;8.796;2022-09-13T08:34:47;24.00;67.80
3069;DHT22;1545;51.728;8.796;2022-09-13T08:37:13;25.10;65.10
3069;DHT22;1545;51.728;8.796;2022-09-13T08:39:39;25.90;62.80
3069;DHT22;1545;51.728;8.796;2022-09-13T08:42:10;26.90;60.30
3069;DHT22;1545;51.728;8.796;2022-09-13T08:44:44;27.10;58.70
3069;DHT22;1545;51.728;8.796;2022-09-13T08:47:36;27.00;59.50
3069;DHT22;1545;51.728;8.796;2022-09-13T08:50:13;27.20;59.20
3069;DHT22;1545;51.728;8.796;2022-09-13T08:52:50;27.50;58.40
3069;DHT22;1545;51.728;8.796;2022-09-13T08:56:17;28.00;57.10
3069;DHT22;1545;51.728;8.796;2022-09-13T08:58:21;28.40;56.00
3069;DHT22;1545;51.728;8.796;2022-09-13T09:00:54;28.40;55.70
3069;DHT22;1545;51.728;8.796;2022-09-13T09:06:01;26.90;58.90
3069;DHT22;1545;51.728;8.796;2022-09-13T09:08:36;26.20;61.30
3069;DHT22;1545;51.728;8.796;2022-09-13T09:11:19;25.80;62.20
3069;DHT22;1545;51.728;8.796;2022-09-13T09:14:00;25.10;64.60
3069;DHT22;1545;51.728;8.796;2022-09-13T09:16:44;24.70;65.80
3069;DHT22;1545;51.728;8.796;2022-09-13T09:19:55;24.80;66.20
3069;DHT22;1545;51.728;8.796;2022-09-13T09:22:18;24.50;66.70
3069;DHT22;1545;51.728;8.796;2022-09-13T09:24:50;24.30;67.50
3069;DHT22;1545;51.728;8.796;2022-09-13T09:27:19;24.10;68.10
3069;DHT22;1545;51.728;8.796;2022-09-13T09:29:47;24.30;68.10
3069;DHT22;1545;51.728;8.796;2022-09-13T09:37:33;24.30;67.90
3069;DHT22;1545;51.728;8.796;2022-09-13T09:40:02;24.20;68.10
3069;DHT22;1545;51.728;8.796;2022-09-13T09:42:43;24.30;68.00
3069;DHT22;1545;51.728;8.796;2022-09-13T09:45:30;24.50;68.10
3069;DHT22;1545;51.728;8.796;2022-09-13T09:47:59;24.60;67.40
3069;DHT22;1545;51.728;8.796;2022-09-13T09:50:29;24.80;67.00
3069;DHT22;1545;51.728;8.796;2022-09-13T09:56:29;24.30;68.20
3069;DHT22;1545;51.728;8.796;2022-09-13T09:58:55;24.00;69.10
3069;DHT22;1545;51.728;8.796;2022-09-13T10:01:25;23.90;69.60
3069;DHT22;1545;51.728;8.796;2022-09-13T10:04:14;23.70;70.20
3069;DHT22;1545;51.728;8.796;2022-09-13T10:06:43;23.70;70.30
3069;DHT22;1545;51.728;8.796;2022-09-13T10:11:56;23.50;71.10
3069;DHT22;1545;51.728;8.796;2022-09-13T10:14:35;23.50;71.50
3069;DHT22;1545;51.728;8.796;2022-09-13T10:17:14;23.50;71.50
3069;DHT22;1545;51.728;8.796;2022-09-13T10:19:40;23.40;71.50
3069;DHT22;1545;51.728;8.796;2022-09-13T10:22:11;23.10;72.80
3069;DHT22;1545;51.728;8.796;2022-09-13T10:24:38;23.30;72.20
3069;DHT22;1545;51.728;8.796;2022-09-13T10:27:04;23.30;72.50
3069;DHT22;1545;51.728;8.796;2022-09-13T10:29:47;23.40;72.10
3069;DHT22;1545;51.728;8.796;2022-09-13T10:32:13;23.40;72.40
3069;DHT22;1545;51.728;8.796;2022-09-13T10:34:42;23.60;72.30
3069;DHT22;1545;51.728;8.796;2022-09-13T10:37:20;23.80;71.20
3069;DHT22;1545;51.728;8.796;2022-09-13T10:39:59;23.80;71.20
3069;DHT22;1545;51.728;8.796;2022-09-13T10:42:27;23.80;71.40
3069;DHT22;1545;51.728;8.796;2022-09-13T10:45:04;23.70;71.60
3069;DHT22;1545;51.728;8.796;2022-09-13T10:47:33;23.80;71.60
3069;DHT22;1545;51.728;8.796;2022-09-13T10:50:26;24.00;70.50
3069;DHT22;1545;51.728;8.796;2022-09-13T10:52:59;24.20;70.10
3069;DHT22;1545;51.728;8.796;2022-09-13T10:55:36;24.40;69.80
3069;DHT22;1545;51.728;8.796;2022-09-13T11:00:38;24.50;69.40
3069;DHT22;1545;51.728;8.796;2022-09-13T11:09:16;24.70;68.80
3069;DHT22;1545;51.728;8.796;2022-09-13T11:19:30;24.60;70.50
3069;DHT22;1545;51.728;8.796;2022-09-13T11:22:31;24.70;70.70
3069;DHT22;1545;51.728;8.796;2022-09-13T11:28:38;25.00;69.40
3069;DHT22;1545;51.728;8.796;2022-09-13T11:31:13;25.10;68.40
3069;DHT22;1545;51.728;8.796;2022-09-13T11:36:59;25.50;68.00
3069;DHT22;1545;51.728;8.796;2022-09-13T11:42:22;25.00;69.20
3069;DHT22;1545;51.728;8.796;2022-09-13T11:47:35;24.80;70.50
3069;DHT22;1545;51.728;8.796;2022-09-13T11:50:29;24.80;69.90
3069;DHT22;1545;51.728;8.796;2022-09-13T11:53:22;24.50;71.10
3069;DHT22;1545;51.728;8.796;2022-09-13T11:55:54;24.40;72.00
3069;DHT22;1545;51.728;8.796;2022-09-13T11:58:41;24.70;72.00
3069;DHT22;1545;51.728;8.796;2022-09-13T12:01:12;24.40;71.70
3069;DHT22;1545;51.728;8.796;2022-09-13T12:04:11;24.40;71.80
3069;DHT22;1545;51.728;8.796;2022-09-13T12:06:49;24.30;71.70
3069;DHT22;1545;51.728;8.796;2022-09-13T12:09:25;24.30;72.20
3069;DHT22;1545;51.728;8.796;2022-09-13T12:14:51;24.00;74.00
3069;DHT22;1545;51.728;8.796;2022-09-13T12:17:39;23.90;74.20
3069;DHT22;1545;51.728;8.796;2022-09-13T12:20:16;23.80;74.60
3069;DHT22;1545;51.728;8.796;2022-09-13T12:22:46;23.60;75.60
3069;DHT22;1545;51.728;8.796;2022-09-13T12:25:20;23.60;75.40
3069;DHT22;1545;51.728;8.796;2022-09-13T12:27:53;23.60;75.90
3069;DHT22;1545;51.728;8.796;2022-09-13T12:30:23;23.80;75.70
3069;DHT22;1545;51.728;8.796;2022-09-13T12:32:50;23.80;75.60
3069;DHT22;1545;51.728;8.796;2022-09-13T12:35:27;24.10;75.30
3069;DHT22;1545;51.728;8.796;2022-09-13T12:38:01;24.20;75.10
3069;DHT22;1545;51.728;8.796;2022-09-13T12:40:53;24.40;74.70
3069;DHT22;1545;51.728;8.796;2022-09-13T12:43:56;24.30;75.10
3069;DHT22;1545;51.728;8.796;2022-09-13T12:49:41;24.70;73.90
3069;DHT22;1545;51.728;8.796;2022-09-13T12:52:30;24.60;74.50
3069;DHT22;1545;51.728;8.796;2022-09-13T12:55:32;24.50;74.50
3069;DHT22;1545;51.728;8.796;2022-09-13T13:01:12;24.30;75.40
3069;DHT22;1545;51.728;8.796;2022-09-13T13:04:09;24.50;75.20
3069;DHT22;1545;51.728;8.796;2022-09-13T13:06:52;24.30;75.00
3069;DHT22;1545;51.728;8.796;2022-09-13T13:09:27;24.10;75.80
3069;DHT22;1545;51.728;8.796;2022-09-13T13:11:56;24.20;75.90
3069;DHT22;1545;51.728;8.796;2022-09-13T13:14:43;24.10;76.50
3069;DHT22;1545;51.728;8.796;2022-09-13T13:17:38;24.10;76.00
3069;DHT22;1545;51.728;8.796;2022-09-13T13:23:32;23.40;77.40
3069;DHT22;1545;51.728;8.796;2022-09-13T13:26:09;23.20;78.00
3069;DHT22;1545;51.728;8.796;2022-09-13T13:36:22;23.60;77.70
3069;DHT22;1545;51.728;8.796;2022-09-13T13:38:50;23.70;77.70
3069;DHT22;1545;51.728;8.796;2022-09-13T13:41:37;23.60;77.50
3069;DHT22;1545;51.728;8.796;2022-09-13T13:59:56;23.00;78.50
3069;DHT22;1545;51.728;8.796;2022-09-13T14:02:33;23.00;78.50
3069;DHT22;1545;51.728;8.796;2022-09-13T14:05:16;23.20;78.30
3069;DHT22;1545;51.728;8.796;2022-09-13T14:16:47;23.80;77.10
3069;DHT22;1545;51.728;8.796;2022-09-13T14:19:39;24.00;77.00
3069;DHT22;1545;51.728;8.796;2022-09-13T14:24:42;24.50;75.60
3069;DHT22;1545;51.728;8.796;2022-09-13T14:27:15;24.50;75.80
3069;DHT22;1545;51.728;8.796;2022-09-13T14:29:48;24.40;75.60
3069;DHT22;1545;51.728;8.796;2022-09-13T14:32:19;24.40;76.00
3069;DHT22;1545;51.728;8.796;2022-09-13T14:35:01;24.30;76.30
3069;DHT22;1545;51.728;8.796;2022-09-13T14:37:36;24.30;76.30
3069;DHT22;1545;51.728;8.796;2022-09-13T14:40:15;24.40;75.90
3069;DHT22;1545;51.728;8.796;2022-09-13T14:42:45;24.60;75.40
3069;DHT22;1545;51.728;8.796;2022-09-13T14:45:17;24.40;75.80
3069;DHT22;1545;51.728;8.796;2022-09-13T14:48:23;24.30;75.80
3069;DHT22;1545;51.728;8.796;2022-09-13T14:53:36;24.30;76.40
3069;DHT22;1545;51.728;8.796;2022-09-13T14:56:27;24.40;76.20
3069;DHT22;1545;51.728;8.796;2022-09-13T14:58:58;24.20;76.20
3069;DHT22;1545;51.728;8.796;2022-09-13T15:01:31;23.80;77.30
3069;DHT22;1545;51.728;8.796;2022-09-13T15:03:59;23.80;77.40
3069;DHT22;1545;51.728;8.796;2022-09-13T15:06:30;23.90;77.40
3069;DHT22;1545;51.728;8.796;2022-09-13T15:09:14;24.10;76.90
3069;DHT22;1545;51.728;8.796;2022-09-13T15:14:30;24.10;77.40
3069;DHT22;1545;51.728;8.796;2022-09-13T15:19:37;24.10;77.50
3069;DHT22;1545;51.728;8.796;2022-09-13T15:22:21;23.80;77.70
3069;DHT22;1545;51.728;8.796;2022-09-13T15:24:53;23.60;78.40
3069;DHT22;1545;51.728;8.796;2022-09-13T15:27:28;23.50;78.40
3069;DHT22;1545;51.728;8.796;2022-09-13T15:30:04;23.40;78.60
3069;DHT22;1545;51.728;8.796;2022-09-13T15:35:22;23.30;78.60
3069;DHT22;1545;51.728;8.796;2022-09-13T15:38:01;23.30;78.50
3069;DHT22;1545;51.728;8.796;2022-09-13T15:40:41;23.10;78.80
3069;DHT22;1545;51.728;8.796;2022-09-13T15:43:07;22.90;79.00
3069;DHT22;1545;51.728;8.796;2022-09-13T15:45:32;23.00;79.10
3069;DHT22;1545;51.728;8.796;2022-09-13T15:47:58;23.00;79.10
3069;DHT22;1545;51.728;8.796;2022-09-13T15:50:26;22.90;79.10
3069;DHT22;1545;51.728;8.796;2022-09-13T15:52:56;22.80;79.30
3069;DHT22;1545;51.728;8.796;2022-09-13T15:55:23;22.80;79.40
3069;DHT22;1545;51.728;8.796;2022-09-13T15:57:49;22.80;79.20
3069;DHT22;1545;51.728;8.796;2022-09-13T16:00:25;22.90;78.90
3069;DHT22;1545;51.728;8.796;2022-09-13T16:02:52;22.90;78.80
3069;DHT22;1545;51.728;8.796;2022-09-13T16:05:18;23.00;78.80
3069;DHT22;1545;51.728;8.796;2022-09-13T16:07:44;23.10;78.80
3069;DHT22;1545;51.728;8.796;2022-09-13T16:10:17;23.10;78.70
3069;DHT22;1545;51.728;8.796;2022-09-13T16:12:43;23.00;78.60
3069;DHT22;1545;51.728;8.796;2022-09-13T16:15:09;22.90;78.90
3069;DHT22;1545;51.728;8.796;2022-09-13T16:17:35;22.90;79.00
3069;DHT22;1545;51.728;8.796;2022-09-13T16:20:00;22.80;79.10
3069;DHT22;1545;51.728;8.796;2022-09-13T16:22:26;22.80;79.20
3069;DHT22;1545;51.728;8.796;2022-09-13T16:24:51;22.70;79.40
3069;DHT22;1545;51.728;8.796;2022-09-13T16:27:18;22.50;79.80
3069;DHT22;1545;51.728;8.796;2022-09-13T16:29:44;22.50;79.80
3069;DHT22;1545;51.728;8.796;2022-09-13T16:32:09;22.40;80.00
3069;DHT22;1545;51.728;8.796;2022-09-13T16:34:35;22.30;80.20
3069;DHT22;1545;51.728;8.796;2022-09-13T16:37:00;22.20;80.10
3069;DHT22;1545;51.728;8.796;2022-09-13T16:39:26;22.10;80.20
3069;DHT22;1545;51.728;8.796;2022-09-13T16:41:52;22.00;80.40
3069;DHT22;1545;51.728;8.796;2022-09-13T16:44:17;22.00;80.60
3069;DHT22;1545;51.728;8.796;2022-09-13T16:46:43;22.00;80.50
3069;DHT22;1545;51.728;8.796;2022-09-13T16:49:09;22.00;80.70
3069;DHT22;1545;51.728;8.796;2022-09-13T16:51:35;22.00;80.70
3069;DHT22;1545;51.728;8.796;2022-09-13T16:54:02;22.00;80.80
3069;DHT22;1545;51.728;8.796;2022-09-13T16:56:28;21.90;81.00
3069;DHT22;1545;51.728;8.796;2022-09-13T16:58:55;21.90;80.90
3069;DHT22;1545;51.728;8.796;2022-09-13T17:01:23;21.80;80.90
3069;DHT22;1545;51.728;8.796;2022-09-13T17:03:49;21.80;80.80
3069;DHT22;1545;51.728;8.796;2022-09-13T17:06:16;21.80;80.90
3069;DHT22;1545;51.728;8.796;2022-09-13T17:08:51;21.70;81.20
3069;DHT22;1545;51.728;8.796;2022-09-13T17:11:19;21.70;81.30
3069;DHT22;1545;51.728;8.796;2022-09-13T17:13:45;21.60;81.50
3069;DHT22;1545;51.728;8.796;2022-09-13T17:16:27;21.50;81.60
3069;DHT22;1545;51.728;8.796;2022-09-13T17:18:53;21.40;81.90
3069;DHT22;1545;51.728;8.796;2022-09-13T17:21:19;21.40;81.90
3069;DHT22;1545;51.728;8.796;2022-09-13T17:23:45;21.30;82.20
3069;DHT22;1545;51.728;8.796;2022-09-13T17:26:10;21.30;82.60
3069;DHT22;1545;51.728;8.796;2022-09-13T17:28:36;21.30;82.60
3069;DHT22;1545;51.728;8.796;2022-09-13T17:31:02;21.30;82.60
3069;DHT22;1545;51.728;8.796;2022-09-13T17:33:30;21.30;82.50
3069;DHT22;1545;51.728;8.796;2022-09-13T17:36:05;21.30;82.60
3069;DHT22;1545;51.728;8.796;2022-09-13T17:38:33;21.30;82.50
3069;DHT22;1545;51.728;8.796;2022-09-13T17:41:00;21.30;82.30
3069;DHT22;1545;51.728;8.796;2022-09-13T17:43:27;21.30;82.30
3069;DHT22;1545;51.728;8.796;2022-09-13T17:45:52;21.20;82.40
3069;DHT22;1545;51.728;8.796;2022-09-13T17:48:18;21.20;82.50
3069;DHT22;1545;51.728;8.796;2022-09-13T17:50:43;21.20;82.60
3069;DHT22;1545;51.728;8.796;2022-09-13T17:53:09;21.10;82.80
3069;DHT22;1545;51.728;8.796;2022-09-13T17:55:36;21.10;82.80
3069;DHT22;1545;51.728;8.796;2022-09-13T17:58:02;21.00;83.30
3069;DHT22;1545;51.728;8.796;2022-09-13T18:00:27;21.00;83.20
3069;DHT22;1545;51.728;8.796;2022-09-13T18:02:53;21.00;82.90
3069;DHT22;1545;51.728;8.796;2022-09-13T18:05:18;21.00;82.90
3069;DHT22;1545;51.728;8.796;2022-09-13T18:07:43;21.00;83.10
3069;DHT22;1545;51.728;8.796;2022-09-13T18:10:09;21.00;83.00
3069;DHT22;1545;51.728;8.796;2022-09-13T18:12:34;21.00;82.90
3069;DHT22;1545;51.728;8.796;2022-09-13T18:15:00;21.00;83.00
3069;DHT22;1545;51.728;8.796;2022-09-13T18:17:26;21.00;83.10
3069;DHT22;1545;51.728;8.796;2022-09-13T18:19:52;21.00;83.00
3069;DHT22;1545;51.728;8.796;2022-09-13T18:22:17;20.90;83.30
3069;DHT22;1545;51.728;8.796;2022-09-13T18:24:43;20.90;83.20
3069;DHT22;1545;51.728;8.796;2022-09-13T18:27:08;20.90;83.20
3069;DHT22;1545;51.728;8.796;2022-09-13T18:29:34;20.80;83.60
3069;DHT22;1545;51.728;8.796;2022-09-13T18:31:59;20.80;83.80
3069;DHT22;1545;51.728;8.796;2022-09-13T18:34:25;20.80;83.60
3069;DHT22;1545;51.728;8.796;2022-09-13T18:36:51;20.80;83.80
3069;DHT22;1545;51.728;8.796;2022-09-13T18:39:19;20.70;83.50
3069;DHT22;1545;51.728;8.796;2022-09-13T18:41:45;20.80;83.50
3069;DHT22;1545;51.728;8.796;2022-09-13T18:44:13;20.80;83.40
3069;DHT22;1545;51.728;8.796;2022-09-13T18:46:40;20.80;83.30
3069;DHT22;1545;51.728;8.796;2022-09-13T18:49:06;20.80;83.20
3069;DHT22;1545;51.728;8.796;2022-09-13T18:51:40;20.80;83.00
3069;DHT22;1545;51.728;8.796;2022-09-13T18:54:08;20.80;83.10